sensor_id;sensor_type;location;lat;lon;timestamp;temperature;humidity
49238;DHT22;35069;47.906;1.892;2024-02-26T00:01:40;9.00;99.90
49238;DHT22;35069;47.906;1.892;2024-02-26T00:04:06;9.00;99.90
49238;DHT22;35069;47.906;1.892;2024-02-26T00:06:32;9.10;99.90
49238;DHT22;35069;47.906;1.892;2024-02-26T00:08:57;9.00;99.90
49238;DHT22;35069;47.906;1.892;2024-02-26T00:11:23;9.00;99.90
49238;DHT22;35069;47.906;1.892;2024-02-26T00:13:49;9.00;99.90
49238;DHT22;35069;47.906;1.892;2024-02-26T00:16:14;9.00;99.90
49238;DHT22;35069;47.906;1.892;2024-02-26T00:18:40;9.00;99.90
49238;DHT22;35069;47.906;1.892;2024-02-26T00:21:05;8.90;99.90
49238;DHT22;35069;47.906;1.892;2024-02-26T00:23:31;8.90;99.90
49238;DHT22;35069;47.906;1.892;2024-02-26T00:25:57;8.90;99.90
49238;DHT22;35069;47.906;1.892;2024-02-26T00:28:23;8.90;99.90
49238;DHT22;35069;47.906;1.892;2024-02-26T00:30:50;8.80;99.90
49238;DHT22;35069;47.906;1.892;2024-02-26T00:33:21;8.80;99.90
49238;DHT22;35069;47.906;1.892;2024-02-26T00:35:47;8.80;99.90
49238;DHT22;35069;47.906;1.892;2024-02-26T00:38:12;8.80;99.90
49238;DHT22;35069;47.906;1.892;2024-02-26T00:40:38;8.80;99.90
49238;DHT22;35069;47.906;1.892;2024-02-26T00:43:04;8.80;99.90
49238;DHT22;35069;47.906;1.892;2024-02-26T00:45:30;8.70;99.90
49238;DHT22;35069;47.906;1.892;2024-02-26T00:47:57;8.80;99.90
49238;DHT22;35069;47.906;1.892;2024-02-26T00:50:23;8.70;99.90
49238;DHT22;35069;47.906;1.892;2024-02-26T00:52:48;8.70;99.90
49238;DHT22;35069;47.906;1.892;2024-02-26T00:55:14;8.70;99.90
49238;DHT22;35069;47.906;1.892;2024-02-26T00:57:40;8.70;99.90
49238;DHT22;35069;47.906;1.892;2024-02-26T01:00:06;8.70;99.90
49238;DHT22;35069;47.906;1.892;2024-02-26T01:02:34;8.80;99.90
49238;DHT22;35069;47.906;1.892;2024-02-26T01:04:59;8.70;99.90
49238;DHT22;35069;47.906;1.892;2024-02-26T01:07:25;8.70;99.90
49238;DHT22;35069;47.906;1.892;2024-02-26T01:09:51;8.80;99.90
49238;DHT22;35069;47.906;1.892;2024-02-26T01:12:16;8.80;99.90
49238;DHT22;35069;47.906;1.892;2024-02-26T01:14:42;8.80;99.90
49238;DHT22;35069;47.906;1.892;2024-02-26T01:17:07;8.80;99.90
49238;DHT22;35069;47.906;1.892;2024-02-26T01:19:33;8.80;99.90
49238;DHT22;35069;47.906;1.892;2024-02-26T01:21:58;8.80;99.90
49238;DHT22;35069;47.906;1.892;2024-02-26T01:24:24;8.80;99.90
49238;DHT22;35069;47.906;1.892;2024-02-26T01:26:49;8.80;99.90
49238;DHT22;35069;47.906;1.892;2024-02-26T01:29:15;8.80;99.90
49238;DHT22;35069;47.906;1.892;2024-02-26T01:31:40;8.90;99.90
49238;DHT22;35069;47.906;1.892;2024-02-26T01:34:06;8.90;99.90
49238;DHT22;35069;47.906;1.892;2024-02-26T01:36:32;8.90;99.90
49238;DHT22;35069;47.906;1.892;2024-02-26T01:38:57;8.90;99.90
49238;DHT22;35069;47.906;1.892;2024-02-26T01:41:23;8.90;99.90
49238;DHT22;35069;47.906;1.892;2024-02-26T01:43:49;8.90;99.90
49238;DHT22;35069;47.906;1.892;2024-02-26T01:46:14;8.90;99.90
49238;DHT22;35069;47.906;1.892;2024-02-26T01:48:42;8.90;99.90
49238;DHT22;35069;47.906;1.892;2024-02-26T01:51:10;8.90;99.90
49238;DHT22;35069;47.906;1.892;2024-02-26T01:53:36;8.90;99.90
49238;DHT22;35069;47.906;1.892;2024-02-26T01:56:02;8.90;99.90
49238;DHT22;35069;47.906;1.892;2024-02-26T01:58:28;8.90;99.90
49238;DHT22;35069;47.906;1.892;2024-02-26T02:00:55;8.90;99.90
49238;DHT22;35069;47.906;1.892;2024-02-26T02:03:21;8.80;99.90
49238;DHT22;35069;47.906;1.892;2024-02-26T02:05:47;8.80;99.90
49238;DHT22;35069;47.906;1.892;2024-02-26T02:08:13;8.80;99.90
49238;DHT22;35069;47.906;1.892;2024-02-26T02:10:40;8.80;99.90
49238;DHT22;35069;47.906;1.892;2024-02-26T02:13:07;8.80;99.90
49238;DHT22;35069;47.906;1.892;2024-02-26T02:15:32;8.80;99.90
49238;DHT22;35069;47.906;1.892;2024-02-26T02:17:58;8.80;99.90
49238;DHT22;35069;47.906;1.892;2024-02-26T02:20:35;8.80;99.90
49238;DHT22;35069;47.906;1.892;2024-02-26T02:23:00;8.80;99.90
49238;DHT22;35069;47.906;1.892;2024-02-26T02:25:26;8.80;99.90
49238;DHT22;35069;47.906;1.892;2024-02-26T02:27:53;8.80;99.90
49238;DHT22;35069;47.906;1.892;2024-02-26T02:30:20;8.80;99.90
49238;DHT22;35069;47.906;1.892;2024-02-26T02:32:46;8.80;99.90
49238;DHT22;35069;47.906;1.892;2024-02-26T02:35:12;8.80;99.90
49238;DHT22;35069;47.906;1.892;2024-02-26T02:37:38;8.70;99.90
49238;DHT22;35069;47.906;1.892;2024-02-26T02:40:04;8.70;99.90
49238;DHT22;35069;47.906;1.892;2024-02-26T02:42:30;8.70;99.90
49238;DHT22;35069;47.906;1.892;2024-02-26T02:44:56;8.70;99.90
49238;DHT22;35069;47.906;1.892;2024-02-26T02:47:21;8.60;99.90
49238;DHT22;35069;47.906;1.892;2024-02-26T02:49:47;8.60;99.90
49238;DHT22;35069;47.906;1.892;2024-02-26T02:52:13;8.60;99.90
49238;DHT22;35069;47.906;1.892;2024-02-26T02:54:38;8.60;99.90
49238;DHT22;35069;47.906;1.892;2024-02-26T02:57:07;8.60;99.90
49238;DHT22;35069;47.906;1.892;2024-02-26T02:59:33;8.60;99.90
49238;DHT22;35069;47.906;1.892;2024-02-26T03:01:58;8.60;99.90
49238;DHT22;35069;47.906;1.892;2024-02-26T03:04:24;8.50;99.90
49238;DHT22;35069;47.906;1.892;2024-02-26T03:06:50;8.50;99.90
49238;DHT22;35069;47.906;1.892;2024-02-26T03:09:15;8.50;99.90
49238;DHT22;35069;47.906;1.892;2024-02-26T03:11:44;8.50;99.90
49238;DHT22;35069;47.906;1.892;2024-02-26T03:14:09;8.50;99.90
49238;DHT22;35069;47.906;1.892;2024-02-26T03:16:35;8.50;99.90
49238;DHT22;35069;47.906;1.892;2024-02-26T03:19:01;8.50;99.90
49238;DHT22;35069;47.906;1.892;2024-02-26T03:21:27;8.40;99.90
49238;DHT22;35069;47.906;1.892;2024-02-26T03:23:52;8.40;99.90
49238;DHT22;35069;47.906;1.892;2024-02-26T03:26:18;8.40;99.90
49238;DHT22;35069;47.906;1.892;2024-02-26T03:28:44;8.40;99.90
49238;DHT22;35069;47.906;1.892;2024-02-26T03:31:10;8.30;99.90
49238;DHT22;35069;47.906;1.892;2024-02-26T03:33:36;8.30;99.90
49238;DHT22;35069;47.906;1.892;2024-02-26T03:36:02;8.30;99.90
49238;DHT22;35069;47.906;1.892;2024-02-26T03:38:28;8.30;99.90
49238;DHT22;35069;47.906;1.892;2024-02-26T03:40:54;8.30;99.90
49238;DHT22;35069;47.906;1.892;2024-02-26T03:43:20;8.30;99.90
49238;DHT22;35069;47.906;1.892;2024-02-26T03:45:45;8.30;99.90
49238;DHT22;35069;47.906;1.892;2024-02-26T03:48:11;8.40;99.90
49238;DHT22;35069;47.906;1.892;2024-02-26T03:50:36;8.40;99.90
49238;DHT22;35069;47.906;1.892;2024-02-26T03:53:02;8.40;99.90
49238;DHT22;35069;47.906;1.892;2024-02-26T03:55:28;8.50;99.90
49238;DHT22;35069;47.906;1.892;2024-02-26T03:57:53;8.50;99.90
49238;DHT22;35069;47.906;1.892;2024-02-26T04:00:19;8.50;99.90
49238;DHT22;35069;47.906;1.892;2024-02-26T04:02:47;8.50;99.90
49238;DHT22;35069;47.906;1.892;2024-02-26T04:05:14;8.50;99.90
49238;DHT22;35069;47.906;1.892;2024-02-26T04:07:42;8.50;99.90
49238;DHT22;35069;47.906;1.892;2024-02-26T04:10:11;8.50;99.90
49238;DHT22;35069;47.906;1.892;2024-02-26T04:12:40;8.50;99.90
49238;DHT22;35069;47.906;1.892;2024-02-26T04:15:08;8.50;99.90
49238;DHT22;35069;47.906;1.892;2024-02-26T04:17:33;8.50;99.90
49238;DHT22;35069;47.906;1.892;2024-02-26T04:19:59;8.50;99.90
49238;DHT22;35069;47.906;1.892;2024-02-26T04:22:24;8.60;99.90
49238;DHT22;35069;47.906;1.892;2024-02-26T04:24:50;8.50;99.90
49238;DHT22;35069;47.906;1.892;2024-02-26T04:27:16;8.60;99.90
49238;DHT22;35069;47.906;1.892;2024-02-26T04:29:41;8.60;99.90
49238;DHT22;35069;47.906;1.892;2024-02-26T04:32:07;8.60;99.90
49238;DHT22;35069;47.906;1.892;2024-02-26T04:34:32;8.60;99.90
49238;DHT22;35069;47.906;1.892;2024-02-26T04:36:58;8.70;99.90
49238;DHT22;35069;47.906;1.892;2024-02-26T04:39:23;8.70;99.90
49238;DHT22;35069;47.906;1.892;2024-02-26T04:41:49;8.70;99.90
49238;DHT22;35069;47.906;1.892;2024-02-26T04:44:15;8.70;99.90
49238;DHT22;35069;47.906;1.892;2024-02-26T04:46:40;8.70;99.90
49238;DHT22;35069;47.906;1.892;2024-02-26T04:49:06;8.80;99.90
49238;DHT22;35069;47.906;1.892;2024-02-26T04:51:31;8.80;99.90
49238;DHT22;35069;47.906;1.892;2024-02-26T04:53:57;8.80;99.90
49238;DHT22;35069;47.906;1.892;2024-02-26T04:56:22;8.80;99.90
49238;DHT22;35069;47.906;1.892;2024-02-26T04:58:48;8.80;99.90
49238;DHT22;35069;47.906;1.892;2024-02-26T05:01:14;8.80;99.90
49238;DHT22;35069;47.906;1.892;2024-02-26T05:03:41;8.90;99.90
49238;DHT22;35069;47.906;1.892;2024-02-26T05:06:07;8.90;99.90
49238;DHT22;35069;47.906;1.892;2024-02-26T05:08:32;8.90;99.90
49238;DHT22;35069;47.906;1.892;2024-02-26T05:11:01;8.90;99.90
49238;DHT22;35069;47.906;1.892;2024-02-26T05:13:28;8.90;99.90
49238;DHT22;35069;47.906;1.892;2024-02-26T05:15:54;8.90;99.90
49238;DHT22;35069;47.906;1.892;2024-02-26T05:18:19;8.90;99.90
49238;DHT22;35069;47.906;1.892;2024-02-26T05:20:45;8.90;99.90
49238;DHT22;35069;47.906;1.892;2024-02-26T05:23:11;8.90;99.90
49238;DHT22;35069;47.906;1.892;2024-02-26T05:25:36;8.90;99.90
49238;DHT22;35069;47.906;1.892;2024-02-26T05:28:02;8.90;99.90
49238;DHT22;35069;47.906;1.892;2024-02-26T05:30:28;8.90;99.90
49238;DHT22;35069;47.906;1.892;2024-02-26T05:32:54;8.90;99.90
49238;DHT22;35069;47.906;1.892;2024-02-26T05:35:20;8.90;99.90
49238;DHT22;35069;47.906;1.892;2024-02-26T05:37:45;8.90;99.90
49238;DHT22;35069;47.906;1.892;2024-02-26T05:40:11;8.90;99.90
49238;DHT22;35069;47.906;1.892;2024-02-26T05:42:37;8.80;99.90
49238;DHT22;35069;47.906;1.892;2024-02-26T05:45:03;8.80;99.90
49238;DHT22;35069;47.906;1.892;2024-02-26T05:47:35;8.90;99.90
49238;DHT22;35069;47.906;1.892;2024-02-26T05:50:01;8.90;99.90
49238;DHT22;35069;47.906;1.892;2024-02-26T05:52:27;8.80;99.90
49238;DHT22;35069;47.906;1.892;2024-02-26T05:54:54;8.80;99.90
49238;DHT22;35069;47.906;1.892;2024-02-26T05:57:20;8.80;99.90
49238;DHT22;35069;47.906;1.892;2024-02-26T05:59:45;8.80;99.90
49238;DHT22;35069;47.906;1.892;2024-02-26T06:02:11;8.80;99.90
49238;DHT22;35069;47.906;1.892;2024-02-26T06:04:37;8.80;99.90
49238;DHT22;35069;47.906;1.892;2024-02-26T06:07:02;8.70;99.90
49238;DHT22;35069;47.906;1.892;2024-02-26T06:09:28;8.70;99.90
49238;DHT22;35069;47.906;1.892;2024-02-26T06:11:53;8.70;99.90
49238;DHT22;35069;47.906;1.892;2024-02-26T06:14:19;8.70;99.90
49238;DHT22;35069;47.906;1.892;2024-02-26T06:16:46;8.70;99.90
49238;DHT22;35069;47.906;1.892;2024-02-26T06:19:11;8.70;99.90
49238;DHT22;35069;47.906;1.892;2024-02-26T06:21:37;8.70;99.90
49238;DHT22;35069;47.906;1.892;2024-02-26T06:24:03;8.70;99.90
49238;DHT22;35069;47.906;1.892;2024-02-26T06:26:28;8.70;99.90
49238;DHT22;35069;47.906;1.892;2024-02-26T06:28:55;8.70;99.90
49238;DHT22;35069;47.906;1.892;2024-02-26T06:31:22;8.70;99.90
49238;DHT22;35069;47.906;1.892;2024-02-26T06:33:48;8.70;99.90
49238;DHT22;35069;47.906;1.892;2024-02-26T06:36:15;8.70;99.90
49238;DHT22;35069;47.906;1.892;2024-02-26T06:38:41;8.70;99.90
49238;DHT22;35069;47.906;1.892;2024-02-26T06:41:06;8.70;99.90
49238;DHT22;35069;47.906;1.892;2024-02-26T06:43:32;8.70;99.90
49238;DHT22;35069;47.906;1.892;2024-02-26T06:45:58;8.70;99.90
49238;DHT22;35069;47.906;1.892;2024-02-26T06:48:24;8.60;99.90
49238;DHT22;35069;47.906;1.892;2024-02-26T06:50:50;8.60;99.90
49238;DHT22;35069;47.906;1.892;2024-02-26T06:53:15;8.60;99.90
49238;DHT22;35069;47.906;1.892;2024-02-26T06:55:42;8.60;99.90
49238;DHT22;35069;47.906;1.892;2024-02-26T06:58:08;8.60;99.90
49238;DHT22;35069;47.906;1.892;2024-02-26T07:00:34;8.60;99.90
49238;DHT22;35069;47.906;1.892;2024-02-26T07:02:59;8.60;99.90
49238;DHT22;35069;47.906;1.892;2024-02-26T07:05:25;8.60;99.90
49238;DHT22;35069;47.906;1.892;2024-02-26T07:07:51;8.60;99.90
49238;DHT22;35069;47.906;1.892;2024-02-26T07:10:16;8.60;99.90
49238;DHT22;35069;47.906;1.892;2024-02-26T07:12:42;8.60;99.90
49238;DHT22;35069;47.906;1.892;2024-02-26T07:15:08;8.60;99.90
49238;DHT22;35069;47.906;1.892;2024-02-26T07:17:34;8.60;99.90
49238;DHT22;35069;47.906;1.892;2024-02-26T07:20:00;8.60;99.90
49238;DHT22;35069;47.906;1.892;2024-02-26T07:22:25;8.60;99.90
49238;DHT22;35069;47.906;1.892;2024-02-26T07:24:51;8.70;99.90
49238;DHT22;35069;47.906;1.892;2024-02-26T07:27:18;8.70;99.90
49238;DHT22;35069;47.906;1.892;2024-02-26T07:29:44;8.70;99.90
49238;DHT22;35069;47.906;1.892;2024-02-26T07:32:12;8.70;99.90
49238;DHT22;35069;47.906;1.892;2024-02-26T07:34:38;8.70;99.90
49238;DHT22;35069;47.906;1.892;2024-02-26T07:37:07;8.70;99.90
49238;DHT22;35069;47.906;1.892;2024-02-26T07:39:33;8.70;99.90
49238;DHT22;35069;47.906;1.892;2024-02-26T07:41:59;8.70;99.90
49238;DHT22;35069;47.906;1.892;2024-02-26T07:44:24;8.80;99.90
49238;DHT22;35069;47.906;1.892;2024-02-26T07:46:50;8.80;99.90
49238;DHT22;35069;47.906;1.892;2024-02-26T07:49:15;8.80;99.90
49238;DHT22;35069;47.906;1.892;2024-02-26T07:51:41;8.80;99.90
49238;DHT22;35069;47.906;1.892;2024-02-26T07:54:07;8.90;99.90
49238;DHT22;35069;47.906;1.892;2024-02-26T07:56:33;8.90;99.90
49238;DHT22;35069;47.906;1.892;2024-02-26T07:58:58;8.90;99.90
49238;DHT22;35069;47.906;1.892;2024-02-26T08:01:24;8.90;99.90
49238;DHT22;35069;47.906;1.892;2024-02-26T08:03:52;9.00;99.90
49238;DHT22;35069;47.906;1.892;2024-02-26T08:06:18;9.10;99.90
49238;DHT22;35069;47.906;1.892;2024-02-26T08:08:44;9.10;99.90
49238;DHT22;35069;47.906;1.892;2024-02-26T08:11:09;9.10;99.90
49238;DHT22;35069;47.906;1.892;2024-02-26T08:13:35;9.30;99.90
49238;DHT22;35069;47.906;1.892;2024-02-26T08:16:01;9.40;99.90
49238;DHT22;35069;47.906;1.892;2024-02-26T08:18:27;9.50;99.90
49238;DHT22;35069;47.906;1.892;2024-02-26T08:20:52;9.60;99.90
49238;DHT22;35069;47.906;1.892;2024-02-26T08:23:18;9.60;99.90
49238;DHT22;35069;47.906;1.892;2024-02-26T08:25:43;9.60;99.90
49238;DHT22;35069;47.906;1.892;2024-02-26T08:28:09;9.50;99.90
49238;DHT22;35069;47.906;1.892;2024-02-26T08:30:38;9.60;99.90
49238;DHT22;35069;47.906;1.892;2024-02-26T08:33:04;9.80;99.90
49238;DHT22;35069;47.906;1.892;2024-02-26T08:35:29;9.90;99.90
49238;DHT22;35069;47.906;1.892;2024-02-26T08:37:55;10.00;99.90
49238;DHT22;35069;47.906;1.892;2024-02-26T08:40:21;10.30;99.90
49238;DHT22;35069;47.906;1.892;2024-02-26T08:42:46;10.70;99.90
49238;DHT22;35069;47.906;1.892;2024-02-26T08:45:12;11.00;99.90
49238;DHT22;35069;47.906;1.892;2024-02-26T08:47:38;11.10;99.90
49238;DHT22;35069;47.906;1.892;2024-02-26T08:50:04;11.20;99.90
49238;DHT22;35069;47.906;1.892;2024-02-26T08:52:30;11.20;99.90
49238;DHT22;35069;47.906;1.892;2024-02-26T08:54:56;11.40;99.90
49238;DHT22;35069;47.906;1.892;2024-02-26T08:57:22;11.40;99.90
49238;DHT22;35069;47.906;1.892;2024-02-26T08:59:48;11.60;99.90
49238;DHT22;35069;47.906;1.892;2024-02-26T09:02:14;11.80;99.90
49238;DHT22;35069;47.906;1.892;2024-02-26T09:04:39;11.90;99.90
49238;DHT22;35069;47.906;1.892;2024-02-26T09:07:05;11.90;99.90
49238;DHT22;35069;47.906;1.892;2024-02-26T09:09:31;12.00;99.90
49238;DHT22;35069;47.906;1.892;2024-02-26T09:11:57;12.00;99.90
49238;DHT22;35069;47.906;1.892;2024-02-26T09:14:23;12.20;99.90
49238;DHT22;35069;47.906;1.892;2024-02-26T09:16:49;12.30;99.90
49238;DHT22;35069;47.906;1.892;2024-02-26T09:19:15;12.40;99.90
49238;DHT22;35069;47.906;1.892;2024-02-26T09:21:44;12.40;99.90
49238;DHT22;35069;47.906;1.892;2024-02-26T09:24:13;12.40;99.90
49238;DHT22;35069;47.906;1.892;2024-02-26T09:26:39;12.40;99.90
49238;DHT22;35069;47.906;1.892;2024-02-26T09:29:04;12.40;99.90
49238;DHT22;35069;47.906;1.892;2024-02-26T09:31:31;12.40;99.90
49238;DHT22;35069;47.906;1.892;2024-02-26T09:33:57;12.50;99.90
49238;DHT22;35069;47.906;1.892;2024-02-26T09:36:22;12.70;99.90
49238;DHT22;35069;47.906;1.892;2024-02-26T09:38:48;12.90;99.90
49238;DHT22;35069;47.906;1.892;2024-02-26T09:41:17;13.30;99.90
49238;DHT22;35069;47.906;1.892;2024-02-26T09:43:44;14.10;99.90
49238;DHT22;35069;47.906;1.892;2024-02-26T09:46:11;14.50;99.90
49238;DHT22;35069;47.906;1.892;2024-02-26T09:48:37;14.50;99.90
49238;DHT22;35069;47.906;1.892;2024-02-26T09:51:04;15.00;99.90
49238;DHT22;35069;47.906;1.892;2024-02-26T09:53:32;15.10;99.90
49238;DHT22;35069;47.906;1.892;2024-02-26T09:55:58;14.80;99.90
49238;DHT22;35069;47.906;1.892;2024-02-26T09:58:28;14.80;99.90
49238;DHT22;35069;47.906;1.892;2024-02-26T10:00:56;14.80;99.90
49238;DHT22;35069;47.906;1.892;2024-02-26T10:03:31;14.90;99.90
49238;DHT22;35069;47.906;1.892;2024-02-26T10:05:59;15.00;99.90
49238;DHT22;35069;47.906;1.892;2024-02-26T10:08:28;14.70;99.90
49238;DHT22;35069;47.906;1.892;2024-02-26T10:10:55;14.70;99.90
49238;DHT22;35069;47.906;1.892;2024-02-26T10:13:22;14.40;99.90
49238;DHT22;35069;47.906;1.892;2024-02-26T10:15:48;14.20;99.90
49238;DHT22;35069;47.906;1.892;2024-02-26T10:18:14;13.80;99.90
49238;DHT22;35069;47.906;1.892;2024-02-26T10:20:40;13.50;99.90
49238;DHT22;35069;47.906;1.892;2024-02-26T10:23:06;13.30;99.90
49238;DHT22;35069;47.906;1.892;2024-02-26T10:25:31;13.00;99.90
49238;DHT22;35069;47.906;1.892;2024-02-26T10:28:01;12.80;99.90
49238;DHT22;35069;47.906;1.892;2024-02-26T10:30:30;12.70;99.90
49238;DHT22;35069;47.906;1.892;2024-02-26T10:32:56;12.70;99.90
49238;DHT22;35069;47.906;1.892;2024-02-26T10:35:22;12.60;99.90
49238;DHT22;35069;47.906;1.892;2024-02-26T10:37:49;12.70;99.90
49238;DHT22;35069;47.906;1.892;2024-02-26T10:40:15;12.90;99.90
49238;DHT22;35069;47.906;1.892;2024-02-26T10:42:41;13.00;99.90
49238;DHT22;35069;47.906;1.892;2024-02-26T10:45:08;13.00;99.90
49238;DHT22;35069;47.906;1.892;2024-02-26T10:47:35;13.20;99.90
49238;DHT22;35069;47.906;1.892;2024-02-26T10:50:06;13.30;99.90
49238;DHT22;35069;47.906;1.892;2024-02-26T10:52:36;13.30;99.90
49238;DHT22;35069;47.906;1.892;2024-02-26T10:55:03;13.20;99.90
49238;DHT22;35069;47.906;1.892;2024-02-26T10:57:42;13.40;99.90
49238;DHT22;35069;47.906;1.892;2024-02-26T11:00:13;13.60;99.90
49238;DHT22;35069;47.906;1.892;2024-02-26T11:02:40;13.80;99.90
49238;DHT22;35069;47.906;1.892;2024-02-26T11:05:06;13.90;99.90
49238;DHT22;35069;47.906;1.892;2024-02-26T11:07:34;14.20;99.90
49238;DHT22;35069;47.906;1.892;2024-02-26T11:10:05;14.90;99.90
49238;DHT22;35069;47.906;1.892;2024-02-26T11:12:35;15.20;99.90
49238;DHT22;35069;47.906;1.892;2024-02-26T11:15:03;15.80;99.90
49238;DHT22;35069;47.906;1.892;2024-02-26T11:17:29;17.20;99.90
49238;DHT22;35069;47.906;1.892;2024-02-26T11:20:00;19.40;99.90
49238;DHT22;35069;47.906;1.892;2024-02-26T11:22:28;21.10;99.90
49238;DHT22;35069;47.906;1.892;2024-02-26T11:24:55;21.20;99.90
49238;DHT22;35069;47.906;1.892;2024-02-26T11:27:36;21.40;99.90
49238;DHT22;35069;47.906;1.892;2024-02-26T11:30:04;21.10;99.90
49238;DHT22;35069;47.906;1.892;2024-02-26T11:32:31;21.70;99.90
49238;DHT22;35069;47.906;1.892;2024-02-26T11:34:57;20.00;99.90
49238;DHT22;35069;47.906;1.892;2024-02-26T11:37:24;18.50;99.90
49238;DHT22;35069;47.906;1.892;2024-02-26T11:39:51;17.10;99.90
49238;DHT22;35069;47.906;1.892;2024-02-26T11:42:17;16.20;99.90
49238;DHT22;35069;47.906;1.892;2024-02-26T11:44:43;15.80;99.90
49238;DHT22;35069;47.906;1.892;2024-02-26T11:47:22;15.80;99.90
49238;DHT22;35069;47.906;1.892;2024-02-26T11:49:51;15.80;99.90
49238;DHT22;35069;47.906;1.892;2024-02-26T11:52:17;16.70;99.90
49238;DHT22;35069;47.906;1.892;2024-02-26T11:54:44;16.50;99.90
49238;DHT22;35069;47.906;1.892;2024-02-26T11:57:27;15.80;99.90
49238;DHT22;35069;47.906;1.892;2024-02-26T11:59:54;15.10;99.90
49238;DHT22;35069;47.906;1.892;2024-02-26T12:02:53;14.30;99.90
49238;DHT22;35069;47.906;1.892;2024-02-26T12:05:26;13.80;99.90
49238;DHT22;35069;47.906;1.892;2024-02-26T12:10:25;13.70;99.90
49238;DHT22;35069;47.906;1.892;2024-02-26T12:12:58;14.80;99.90
49238;DHT22;35069;47.906;1.892;2024-02-26T12:15:30;16.60;99.90
49238;DHT22;35069;47.906;1.892;2024-02-26T12:17:56;16.60;99.90
49238;DHT22;35069;47.906;1.892;2024-02-26T12:20:22;15.90;99.90
49238;DHT22;35069;47.906;1.892;2024-02-26T12:22:49;15.30;99.90
49238;DHT22;35069;47.906;1.892;2024-02-26T12:25:16;14.50;99.90
49238;DHT22;35069;47.906;1.892;2024-02-26T12:27:42;13.70;99.90
49238;DHT22;35069;47.906;1.892;2024-02-26T12:30:09;13.30;99.90
49238;DHT22;35069;47.906;1.892;2024-02-26T12:32:35;13.10;99.90
49238;DHT22;35069;47.906;1.892;2024-02-26T12:35:01;12.80;99.90
49238;DHT22;35069;47.906;1.892;2024-02-26T12:37:28;12.50;99.90
49238;DHT22;35069;47.906;1.892;2024-02-26T12:39:53;12.40;99.90
49238;DHT22;35069;47.906;1.892;2024-02-26T12:42:19;12.90;99.90
49238;DHT22;35069;47.906;1.892;2024-02-26T12:44:49;15.20;99.90
49238;DHT22;35069;47.906;1.892;2024-02-26T12:47:15;16.80;99.90
49238;DHT22;35069;47.906;1.892;2024-02-26T12:49:47;16.90;99.90
49238;DHT22;35069;47.906;1.892;2024-02-26T12:52:14;17.30;99.90
49238;DHT22;35069;47.906;1.892;2024-02-26T12:54:40;16.60;99.90
49238;DHT22;35069;47.906;1.892;2024-02-26T12:57:08;16.10;99.90
49238;DHT22;35069;47.906;1.892;2024-02-26T12:59:35;15.50;99.90
49238;DHT22;35069;47.906;1.892;2024-02-26T13:02:02;15.20;99.90
49238;DHT22;35069;47.906;1.892;2024-02-26T13:04:29;15.30;99.90
49238;DHT22;35069;47.906;1.892;2024-02-26T13:06:56;15.10;99.90
49238;DHT22;35069;47.906;1.892;2024-02-26T13:09:26;14.80;99.90
49238;DHT22;35069;47.906;1.892;2024-02-26T13:11:55;14.40;99.90
49238;DHT22;35069;47.906;1.892;2024-02-26T13:14:21;14.00;99.90
49238;DHT22;35069;47.906;1.892;2024-02-26T13:16:56;13.70;99.90
49238;DHT22;35069;47.906;1.892;2024-02-26T13:19:22;13.50;99.90
49238;DHT22;35069;47.906;1.892;2024-02-26T13:21:48;13.40;99.90
49238;DHT22;35069;47.906;1.892;2024-02-26T13:24:14;13.50;99.90
49238;DHT22;35069;47.906;1.892;2024-02-26T13:26:40;13.40;99.90
49238;DHT22;35069;47.906;1.892;2024-02-26T13:29:05;13.40;99.90
49238;DHT22;35069;47.906;1.892;2024-02-26T13:31:32;13.30;99.90
49238;DHT22;35069;47.906;1.892;2024-02-26T13:34:03;13.30;99.90
49238;DHT22;35069;47.906;1.892;2024-02-26T13:36:29;13.40;99.90
49238;DHT22;35069;47.906;1.892;2024-02-26T13:38:55;13.40;99.90
49238;DHT22;35069;47.906;1.892;2024-02-26T13:41:24;13.20;99.90
49238;DHT22;35069;47.906;1.892;2024-02-26T13:43:50;13.10;99.90
49238;DHT22;35069;47.906;1.892;2024-02-26T13:46:16;13.00;99.90
49238;DHT22;35069;47.906;1.892;2024-02-26T13:48:42;12.70;99.90
49238;DHT22;35069;47.906;1.892;2024-02-26T13:51:08;12.60;99.90
49238;DHT22;35069;47.906;1.892;2024-02-26T13:53:33;12.40;99.90
49238;DHT22;35069;47.906;1.892;2024-02-26T13:55:59;12.30;99.90
49238;DHT22;35069;47.906;1.892;2024-02-26T13:58:26;12.00;99.90
49238;DHT22;35069;47.906;1.892;2024-02-26T14:00:53;11.80;99.90
49238;DHT22;35069;47.906;1.892;2024-02-26T14:03:20;11.70;99.90
49238;DHT22;35069;47.906;1.892;2024-02-26T14:05:46;11.80;99.90
49238;DHT22;35069;47.906;1.892;2024-02-26T14:08:11;11.70;99.90
49238;DHT22;35069;47.906;1.892;2024-02-26T14:10:37;11.60;99.90
49238;DHT22;35069;47.906;1.892;2024-02-26T14:13:03;11.60;99.90
49238;DHT22;35069;47.906;1.892;2024-02-26T14:15:29;11.50;99.90
49238;DHT22;35069;47.906;1.892;2024-02-26T14:17:55;11.50;99.90
49238;DHT22;35069;47.906;1.892;2024-02-26T14:20:21;11.60;99.90
49238;DHT22;35069;47.906;1.892;2024-02-26T14:22:48;11.50;99.90
49238;DHT22;35069;47.906;1.892;2024-02-26T14:25:14;11.50;99.90
49238;DHT22;35069;47.906;1.892;2024-02-26T14:27:40;11.60;99.90
49238;DHT22;35069;47.906;1.892;2024-02-26T14:30:06;11.50;99.90
49238;DHT22;35069;47.906;1.892;2024-02-26T14:32:32;11.50;99.90
49238;DHT22;35069;47.906;1.892;2024-02-26T14:35:02;11.70;99.90
49238;DHT22;35069;47.906;1.892;2024-02-26T14:37:28;11.70;99.90
49238;DHT22;35069;47.906;1.892;2024-02-26T14:39:54;11.80;99.90
49238;DHT22;35069;47.906;1.892;2024-02-26T14:42:19;11.70;99.90
49238;DHT22;35069;47.906;1.892;2024-02-26T14:44:45;11.60;99.90
49238;DHT22;35069;47.906;1.892;2024-02-26T14:47:13;11.60;99.90
49238;DHT22;35069;47.906;1.892;2024-02-26T14:49:39;11.50;99.90
49238;DHT22;35069;47.906;1.892;2024-02-26T14:52:04;11.40;99.90
49238;DHT22;35069;47.906;1.892;2024-02-26T14:54:30;11.30;99.90
49238;DHT22;35069;47.906;1.892;2024-02-26T14:57:05;11.30;99.90
49238;DHT22;35069;47.906;1.892;2024-02-26T14:59:32;11.00;99.90
49238;DHT22;35069;47.906;1.892;2024-02-26T15:01:58;11.00;99.90
49238;DHT22;35069;47.906;1.892;2024-02-26T15:04:25;10.90;99.90
49238;DHT22;35069;47.906;1.892;2024-02-26T15:06:51;10.90;99.90
49238;DHT22;35069;47.906;1.892;2024-02-26T15:09:17;10.60;99.90
49238;DHT22;35069;47.906;1.892;2024-02-26T15:11:43;10.40;99.90
49238;DHT22;35069;47.906;1.892;2024-02-26T15:14:10;10.40;99.90
49238;DHT22;35069;47.906;1.892;2024-02-26T15:16:36;10.30;99.90
49238;DHT22;35069;47.906;1.892;2024-02-26T15:19:02;10.20;99.90
49238;DHT22;35069;47.906;1.892;2024-02-26T15:21:29;10.20;99.90
49238;DHT22;35069;47.906;1.892;2024-02-26T15:23:54;9.90;99.90
49238;DHT22;35069;47.906;1.892;2024-02-26T15:26:20;9.70;99.90
49238;DHT22;35069;47.906;1.892;2024-02-26T15:28:46;9.80;99.90
49238;DHT22;35069;47.906;1.892;2024-02-26T15:31:12;9.80;99.90
49238;DHT22;35069;47.906;1.892;2024-02-26T15:33:37;9.90;99.90
49238;DHT22;35069;47.906;1.892;2024-02-26T15:36:03;9.90;99.90
49238;DHT22;35069;47.906;1.892;2024-02-26T15:38:29;9.90;99.90